Time;durP1;ratioP1;P1;durP2;ratioP2;P2;SDS_P1;SDS_P2;PMS_P1;PMS_P2;Temp;Humidity;BMP_temperature;BMP_pressure;BME280_temperature;BME280_humidity;BME280_pressure;Samples;Min_cycle;Max_cycle;Signal;HPM_P1;HPM_P2
2023/06/06 00:00:46;;;;;;;;;7.75;6.00;;;;;21.27;47.25;101222.72;2087681;28;45995;-61
2023/06/06 00:01:49;;;;;;;;;9.50;9.50;;;;;21.28;47.34;101223.59;2088903;28;45375;-60
2023/06/06 00:02:50;;;;;;;;;10.60;8.80;;;;;21.25;47.24;101224.66;2086536;28;46451;-61
2023/06/06 00:03:50;;;;;;;;;7.80;7.20;;;;;21.25;46.99;101223.75;2087274;28;48261;-61
2023/06/06 00:04:52;;;;;;;;;7.75;7.75;;;;;21.26;47.19;101225.53;2087676;28;47159;-61
2023/06/06 00:05:53;;;;;;;;;6.60;5.80;;;;;21.25;46.94;101224.66;2088063;28;45863;-61
2023/06/06 00:06:54;;;;;;;;;6.00;5.75;;;;;21.22;46.83;101222.13;2090384;28;45889;-61
2023/06/06 00:07:54;;;;;;;;;8.80;8.80;;;;;21.20;46.98;101221.31;2087999;28;45743;-60
2023/06/06 00:08:55;;;;;;;;;10.75;10.75;;;;;21.20;47.08;101220.44;2087383;28;46446;-63
2023/06/06 00:09:55;;;;;;;;;7.25;7.25;;;;;21.17;47.11;101224.19;2087868;28;45964;-61
2023/06/06 00:10:55;;;;;;;;;8.50;8.50;;;;;21.16;47.55;101222.44;2087865;28;46110;-61
2023/06/06 00:11:56;;;;;;;;;9.50;9.50;;;;;21.13;47.03;101220.81;2087872;28;45583;-61
2023/06/06 00:12:56;;;;;;;;;11.00;9.25;;;;;21.13;47.24;101220.81;2086857;28;47437;-62
2023/06/06 00:13:57;;;;;;;;;10.00;7.75;;;;;21.11;47.51;101214.63;2087442;28;45942;-60
2023/06/06 00:15:00;;;;;;;;;7.25;7.00;;;;;21.10;47.08;101212.91;2087293;28;45253;-61
2023/06/06 00:16:01;;;;;;;;;12.60;10.20;;;;;21.09;47.36;101216.56;2086988;28;45575;-61
2023/06/06 00:17:02;;;;;;;;;7.80;7.20;;;;;21.07;47.27;101209.47;2086395;28;45904;-60
2023/06/06 00:18:02;;;;;;;;;5.50;5.50;;;;;21.06;47.76;101214.00;2086985;28;46434;-60
2023/06/06 00:19:03;;;;;;;;;13.00;9.75;;;;;21.06;47.62;101207.75;2087150;28;46103;-62
2023/06/06 00:20:06;;;;;;;;;8.00;8.00;;;;;21.05;47.62;101216.78;2086980;28;47019;-60
2023/06/06 00:21:08;;;;;;;;;6.80;6.80;;;;;21.04;47.55;101215.06;2087009;28;45731;-61
2023/06/06 00:22:09;;;;;;;;;10.40;10.40;;;;;21.03;47.70;101213.31;2087142;28;46488;-62
2023/06/06 00:23:10;;;;;;;;;11.40;11.00;;;;;21.03;47.39;101213.31;2087239;28;46466;-62
2023/06/06 00:24:11;;;;;;;;;9.40;5.80;;;;;20.99;47.46;101209.94;2087544;28;45110;-62
2023/06/06 00:25:11;;;;;;;;;12.75;12.00;;;;;20.94;47.53;101212.00;2088287;28;46302;-62
2023/06/06 00:26:12;;;;;;;;;9.50;9.50;;;;;20.92;47.86;101210.38;2087660;28;46402;-61
2023/06/06 00:27:12;;;;;;;;;14.00;12.00;;;;;20.89;47.47;101207.84;2086380;28;45760;-62
2023/06/06 00:28:13;;;;;;;;;12.50;12.50;;;;;20.86;48.08;101207.06;2086585;28;45681;-62
2023/06/06 00:29:13;;;;;;;;;10.00;9.00;;;;;20.84;47.42;101209.00;2087588;28;45771;-61
2023/06/06 00:30:14;;;;;;;;;11.75;11.75;;;;;20.80;47.77;101212.78;2087209;28;45554;-60
2023/06/06 00:31:14;;;;;;;;;10.25;9.25;;;;;20.79;47.58;101212.88;2087720;28;45042;-61
2023/06/06 00:32:15;;;;;;;;;9.00;7.50;;;;;20.78;47.46;101203.06;2087029;28;46005;-61
2023/06/06 00:33:15;;;;;;;;;10.00;10.00;;;;;20.77;47.94;101206.72;2087334;28;46184;-62
2023/06/06 00:34:15;;;;;;;;;11.50;11.50;;;;;20.73;47.92;101206.03;2086922;28;45548;-60
2023/06/06 00:35:16;;;;;;;;;12.75;10.75;;;;;20.71;47.76;101202.53;2086329;28;46051;-62
2023/06/06 00:36:16;;;;;;;;;11.25;11.00;;;;;20.67;48.16;101209.03;2078025;28;45626;-61
2023/06/06 00:37:16;;;;;;;;;9.25;9.25;;;;;20.64;48.34;101208.34;2086762;28;45834;-62
2023/06/06 00:38:17;;;;;;;;;11.25;10.00;;;;;20.61;47.98;101201.31;2087045;28;46079;-63
2023/06/06 00:39:17;;;;;;;;;10.50;9.25;;;;;20.61;48.47;101211.22;2087779;28;45776;-62
2023/06/06 00:40:17;;;;;;;;;14.25;11.75;;;;;20.59;47.86;101203.22;2086573;28;46562;-62
2023/06/06 00:41:18;;;;;;;;;9.00;9.00;;;;;20.58;47.97;101206.84;2087220;28;45922;-63
2023/06/06 00:42:18;;;;;;;;;10.00;9.50;;;;;20.57;48.39;101203.28;2087317;28;45943;-61
2023/06/06 00:43:19;;;;;;;;;9.75;9.25;;;;;20.57;48.20;101203.28;2086361;28;46360;-59
2023/06/06 00:44:20;;;;;;;;;13.25;12.50;;;;;20.57;48.04;101205.09;2087118;28;46186;-61
2023/06/06 00:45:21;;;;;;;;;10.20;9.00;;;;;20.57;48.34;101205.97;2087174;28;45406;-62
2023/06/06 00:46:22;;;;;;;;;10.00;9.50;;;;;20.58;48.10;101212.25;2086623;28;45146;-61
2023/06/06 00:47:23;;;;;;;;;11.20;9.20;;;;;20.57;48.26;101205.97;2086818;28;45747;-62
2023/06/06 00:48:24;;;;;;;;;5.00;4.00;;;;;20.56;48.61;101204.25;2087064;28;46118;-59
2023/06/06 00:49:26;;;;;;;;;10.20;10.20;;;;;20.56;48.62;101198.84;2086396;28;47174;-64
2023/06/06 00:50:26;;;;;;;;;10.20;8.80;;;;;20.56;48.53;101201.53;2086762;28;46228;-63
2023/06/06 00:51:27;;;;;;;;;11.25;9.75;;;;;20.57;48.71;101202.41;2087485;28;47095;-62
2023/06/06 00:52:28;;;;;;;;;10.50;10.00;;;;;20.56;47.95;101198.84;2087567;28;45917;-61
2023/06/06 00:53:28;;;;;;;;;10.40;8.60;;;;;20.56;48.16;101196.16;2085824;28;46169;-61
2023/06/06 00:54:32;;;;;;;;;7.00;7.00;;;;;20.56;48.10;101193.47;2077742;28;47005;-60
2023/06/06 00:55:34;;;;;;;;;8.20;7.20;;;;;20.56;48.01;101195.28;2086396;28;46990;-61
2023/06/06 00:56:37;;;;;;;;;11.00;10.40;;;;;20.53;48.19;101193.63;2087902;28;45118;-61
2023/06/06 00:57:37;;;;;;;;;9.00;7.00;;;;;20.52;48.13;101197.28;2086791;28;45346;-61
2023/06/06 00:58:38;;;;;;;;;7.50;7.50;;;;;20.51;48.08;101195.56;2086632;28;45564;-62
2023/06/06 00:59:41;;;;;;;;;8.25;7.25;;;;;20.50;48.22;101196.50;2086518;28;45147;-62
2023/06/06 01:00:42;;;;;;;;;9.00;8.00;;;;;20.49;48.69;101193.91;2087200;28;45869;-61
2023/06/06 01:01:43;;;;;;;;;9.50;8.25;;;;;20.49;48.44;101199.28;2089763;28;46194;-63
2023/06/06 01:02:47;;;;;;;;;8.75;8.00;;;;;20.47;48.72;101191.28;2088455;28;45683;-62
2023/06/06 01:03:48;;;;;;;;;9.60;9.20;;;;;20.48;48.57;101202.94;2085836;28;45872;-60
2023/06/06 01:04:48;;;;;;;;;9.50;9.00;;;;;20.48;48.27;101193.03;2087888;28;46342;-61
2023/06/06 01:05:53;;;;;;;;;9.00;7.50;;;;;20.48;48.37;101190.34;2087189;28;46230;-61
2023/06/06 01:06:53;;;;;;;;;9.00;9.00;;;;;20.48;48.25;101192.16;2088633;28;45341;-61
2023/06/06 01:07:53;;;;;;;;;14.00;10.00;;;;;20.45;48.88;101190.47;2087502;28;45060;-62
2023/06/06 01:08:54;;;;;;;;;10.00;10.00;;;;;20.44;48.44;101187.88;2086559;28;45545;-62
2023/06/06 01:09:55;;;;;;;;;8.60;8.60;;;;;20.43;48.55;101184.31;2086625;28;46230;-62
2023/06/06 01:11:06;;;;;;;;;9.00;9.00;;;;;20.41;48.47;101180.81;2086497;28;45276;-60
2023/06/06 01:12:28;;;;;;;;;9.20;8.80;;;;;20.40;48.65;101186.28;2086362;28;46508;-62
2023/06/06 01:13:42;;;;;;;;;9.20;8.20;;;;;20.40;48.35;101180.88;2086968;28;45976;-60
2023/06/06 01:15:04;;;;;;;;;9.60;9.20;;;;;20.38;49.20;101175.59;2086899;28;46500;-61
2023/06/06 01:16:10;;;;;;;;;9.80;9.80;;;;;20.37;49.21;101186.47;2086367;28;45597;-61
2023/06/06 01:17:12;;;;;;;;;10.00;9.60;;;;;20.35;48.88;101177.59;2087215;28;46175;-60
2023/06/06 01:18:13;;;;;;;;;10.80;9.20;;;;;20.33;48.81;101184.84;2087193;28;46047;-61
2023/06/06 01:19:19;;;;;;;;;10.00;8.80;;;;;20.29;49.18;101176.94;2086598;28;47133;-62
2023/06/06 01:20:23;;;;;;;;;9.40;9.20;;;;;20.27;48.89;101180.69;2086523;28;46818;-61
2023/06/06 01:21:33;;;;;;;;;9.40;9.40;;;;;20.25;49.25;101180.78;2086594;28;46051;-61
2023/06/06 01:22:35;;;;;;;;;11.20;9.80;;;;;20.24;48.74;101180.88;2086708;28;46336;-60
2023/06/06 01:23:36;;;;;;;;;11.60;10.80;;;;;20.24;48.89;101180.88;2086808;28;46188;-61
2023/06/06 01:24:37;;;;;;;;;11.75;9.50;;;;;20.23;48.95;101180.00;2086745;28;46443;-62
2023/06/06 01:25:40;;;;;;;;;8.00;8.00;;;;;20.24;49.02;101172.78;2086587;28;47600;-62
2023/06/06 01:26:40;;;;;;;;;11.40;8.60;;;;;20.23;48.89;101180.00;2086521;28;46007;-61
2023/06/06 01:27:42;;;;;;;;;11.50;11.00;;;;;20.22;49.48;101178.25;2087318;28;46121;-61
2023/06/06 01:28:42;;;;;;;;;9.20;7.80;;;;;20.20;49.33;101177.47;2086305;28;45553;-60
2023/06/06 01:29:43;;;;;;;;;12.75;11.00;;;;;20.19;49.00;101182.91;2087969;28;45613;-62
2023/06/06 01:30:45;;;;;;;;;9.75;9.75;;;;;20.16;48.82;101177.69;2086467;28;46202;-62
2023/06/06 01:32:11;;;;;;;;;9.60;9.20;;;;;20.13;49.02;101178.75;2087363;28;45813;-60
2023/06/06 01:33:46;;;;;;;;;9.00;9.00;;;;;20.10;48.95;101176.22;2086949;28;46040;-62
2023/06/06 01:34:53;;;;;;;;;10.00;10.00;;;;;20.10;49.13;101184.31;2086581;28;45732;-61
2023/06/06 01:36:20;;;;;;;;;9.40;9.40;;;;;20.11;49.49;101179.78;2102322;27;47702;-60
2023/06/06 01:37:48;;;;;;;;;12.00;9.60;;;;;20.09;49.20;101177.19;2096192;27;46899;-62
2023/06/06 01:38:55;;;;;;;;;9.00;8.00;;;;;20.10;49.41;101169.97;2085994;28;45982;-61
2023/06/06 01:39:56;;;;;;;;;8.60;8.60;;;;;20.08;49.42;101177.28;2086862;28;46118;-61
2023/06/06 01:41:00;;;;;;;;;8.80;6.80;;;;;20.07;49.75;101178.19;2086830;28;46035;-62
2023/06/06 01:42:01;;;;;;;;;10.00;9.60;;;;;20.06;49.68;101177.31;2086910;28;45338;-63
2023/06/06 01:43:04;;;;;;;;;12.80;10.20;;;;;20.05;49.00;101175.59;2086632;28;46144;-60
2023/06/06 01:44:08;;;;;;;;;9.40;7.60;;;;;20.03;49.47;101177.50;2086413;28;46803;-60
2023/06/06 01:45:11;;;;;;;;;9.00;9.00;;;;;20.03;48.95;101173.94;2086755;28;46440;-62
2023/06/06 01:46:13;;;;;;;;;10.60;10.20;;;;;20.00;49.80;101169.59;2086910;28;45679;-62
2023/06/06 01:47:14;;;;;;;;;11.80;9.60;;;;;20.00;49.15;101183.06;2086658;28;45187;-62
2023/06/06 01:48:15;;;;;;;;;11.75;10.75;;;;;19.97;49.43;101173.31;2086866;28;45511;-62
2023/06/06 01:49:15;;;;;;;;;10.40;9.80;;;;;19.97;49.33;101177.84;2085126;28;48665;-58
2023/06/06 01:50:17;;;;;;;;;11.25;10.00;;;;;19.95;49.77;101171.66;2086319;28;46724;-60
2023/06/06 01:51:17;;;;;;;;;8.80;8.80;;;;;19.95;49.75;101174.34;2087088;28;47511;-61
2023/06/06 01:52:18;;;;;;;;;10.00;10.00;;;;;19.95;49.51;101177.94;2086978;28;46237;-57
2023/06/06 01:53:18;;;;;;;;;11.25;10.50;;;;;19.93;49.85;101174.41;2086139;28;46150;-60
2023/06/06 01:54:19;;;;;;;;;11.00;11.00;;;;;19.91;49.95;101178.16;2086381;28;46481;-60
2023/06/06 01:55:20;;;;;;;;;10.00;9.75;;;;;19.91;49.69;101178.16;2086997;28;45401;-60
2023/06/06 01:56:21;;;;;;;;;8.00;6.80;;;;;19.91;49.93;101178.16;2086860;28;45808;-61
2023/06/06 01:57:21;;;;;;;;;11.20;10.00;;;;;19.89;49.61;101177.38;2086552;28;46019;-62
2023/06/06 01:58:22;;;;;;;;;7.25;7.25;;;;;19.88;49.57;101179.19;2086642;28;46448;-60
2023/06/06 01:59:23;;;;;;;;;9.75;9.25;;;;;19.87;49.70;101174.75;2086503;28;46989;-61
2023/06/06 02:00:23;;;;;;;;;9.00;8.00;;;;;19.88;50.37;101183.72;2086682;28;45727;-61
2023/06/06 02:01:24;;;;;;;;;12.00;9.25;;;;;19.87;49.86;101174.75;2087361;28;46356;-61
2023/06/06 02:02:24;;;;;;;;;9.50;8.75;;;;;19.86;49.50;101170.31;2086876;28;46618;-63
2023/06/06 02:03:24;;;;;;;;;11.50;9.75;;;;;19.88;49.49;101175.63;2088039;28;46582;-59
2023/06/06 02:04:25;;;;;;;;;11.25;10.00;;;;;19.87;49.97;101169.38;2087453;28;46834;-61
2023/06/06 02:05:25;;;;;;;;;9.75;8.75;;;;;19.88;49.52;101178.31;2089001;28;46696;-60
2023/06/06 02:06:25;;;;;;;;;9.25;8.25;;;;;19.86;50.05;101170.31;2087764;28;46810;-60
2023/06/06 02:07:26;;;;;;;;;9.50;9.00;;;;;19.86;50.35;101172.16;2087008;28;45992;-61
2023/06/06 02:08:27;;;;;;;;;10.50;10.50;;;;;19.84;49.50;101165.97;2086779;28;45397;-62
2023/06/06 02:09:27;;;;;;;;;10.75;10.75;;;;;19.81;49.47;101169.69;2086773;28;46306;-61
2023/06/06 02:10:27;;;;;;;;;8.00;8.00;;;;;19.81;49.88;101168.81;2087016;28;46322;-61
2023/06/06 02:11:29;;;;;;;;;11.25;10.75;;;;;19.80;49.68;101167.94;2087459;28;46849;-60
2023/06/06 02:12:29;;;;;;;;;10.40;9.60;;;;;19.80;50.08;101172.44;2087633;28;46688;-62
2023/06/06 02:13:29;;;;;;;;;17.25;12.25;;;;;19.77;49.73;101169.94;2087303;28;46728;-62
2023/06/06 02:14:30;;;;;;;;;14.50;11.75;;;;;19.75;49.83;101167.31;2086854;28;45996;-61
2023/06/06 02:15:30;;;;;;;;;13.50;11.50;;;;;19.74;49.74;101172.78;2087582;28;46413;-61
2023/06/06 02:16:31;;;;;;;;;12.00;9.75;;;;;19.72;50.22;101172.00;2078489;28;46274;-62
2023/06/06 02:17:32;;;;;;;;;10.60;10.20;;;;;19.72;50.32;101166.63;2078469;28;45745;-60
2023/06/06 02:18:32;;;;;;;;;13.00;10.25;;;;;19.70;49.78;101174.78;2087325;28;46498;-61
2023/06/06 02:19:33;;;;;;;;;9.25;9.25;;;;;19.69;50.26;101171.22;2087212;28;47232;-61
2023/06/06 02:20:34;;;;;;;;;11.25;11.25;;;;;19.67;50.08;101173.09;2087109;28;46116;-61
2023/06/06 02:21:34;;;;;;;;;10.00;10.00;;;;;19.66;49.61;101173.19;2086692;28;47630;-61
2023/06/06 02:22:34;;;;;;;;;11.75;11.00;;;;;19.64;50.42;101172.41;2086878;28;46658;-58
2023/06/06 02:23:35;;;;;;;;;12.25;12.00;;;;;19.63;50.10;101176.03;2087437;28;45800;-61
2023/06/06 02:24:35;;;;;;;;;9.50;8.75;;;;;19.60;49.94;101178.91;2086583;28;46164;-61
2023/06/06 02:25:38;;;;;;;;;10.25;10.00;;;;;19.59;50.29;101174.47;2087380;28;45609;-61
2023/06/06 02:26:41;;;;;;;;;9.00;8.80;;;;;19.58;50.37;101175.41;2087510;28;46232;-60
2023/06/06 02:27:44;;;;;;;;;9.60;9.60;;;;;19.56;50.09;101175.47;2086657;28;45730;-60
2023/06/06 02:28:45;;;;;;;;;11.00;10.60;;;;;19.56;50.16;101178.16;2087186;28;45887;-60
2023/06/06 02:29:45;;;;;;;;;11.50;10.50;;;;;19.55;50.44;101180.94;2086353;28;46157;-60
2023/06/06 02:30:46;;;;;;;;;10.25;9.75;;;;;19.53;50.57;101180.13;2094703;28;46589;-63
2023/06/06 02:31:47;;;;;;;;;9.50;9.00;;;;;19.51;50.39;101174.81;2095622;28;46273;-60
2023/06/06 02:32:47;;;;;;;;;10.60;10.60;;;;;19.49;50.30;101168.66;2087040;28;45652;-62
2023/06/06 02:33:47;;;;;;;;;11.50;11.00;;;;;19.50;50.44;101182.97;2087257;28;45999;-61
2023/06/06 02:34:48;;;;;;;;;9.00;9.00;;;;;19.51;50.31;101174.81;2087447;28;45826;-61
2023/06/06 02:35:49;;;;;;;;;11.50;10.50;;;;;19.51;50.18;101180.19;2087829;28;45820;-60
2023/06/06 02:36:51;;;;;;;;;12.40;12.00;;;;;19.51;50.27;101174.81;2088109;28;45376;-62
2023/06/06 02:37:51;;;;;;;;;9.40;9.40;;;;;19.48;50.48;101174.97;2103179;27;46108;-60
2023/06/06 02:38:51;;;;;;;;;11.25;9.75;;;;;19.48;50.37;101182.19;2103695;28;45585;-59
2023/06/06 02:39:53;;;;;;;;;15.00;12.00;;;;;19.46;50.81;101182.28;2087427;28;45691;-62
2023/06/06 02:40:53;;;;;;;;;10.80;10.00;;;;;19.45;50.52;101172.47;2086897;28;46826;-61
2023/06/06 02:41:53;;;;;;;;;10.00;10.00;;;;;19.45;50.60;101187.75;2087054;28;46561;-60
2023/06/06 02:42:54;;;;;;;;;13.00;12.75;;;;;19.44;50.89;101183.28;2087409;28;45696;-61
2023/06/06 02:43:54;;;;;;;;;11.75;11.00;;;;;19.44;50.44;101180.59;2086140;28;46039;-61
2023/06/06 02:44:55;;;;;;;;;9.25;9.25;;;;;19.44;50.57;101189.56;2086999;28;46554;-62
2023/06/06 02:45:55;;;;;;;;;14.25;12.00;;;;;19.46;50.63;101178.72;2087166;28;46800;-61
2023/06/06 02:46:57;;;;;;;;;14.75;11.75;;;;;19.46;50.77;101176.88;2088202;28;45453;-61
2023/06/06 02:47:57;;;;;;;;;11.60;11.60;;;;;19.47;50.47;101175.06;2087723;28;45945;-61
2023/06/06 02:48:57;;;;;;;;;12.00;10.75;;;;;19.46;50.77;101178.72;2088281;28;45384;-61
2023/06/06 02:49:58;;;;;;;;;13.25;11.00;;;;;19.46;50.32;101170.63;2086803;28;46867;-62
2023/06/06 02:50:59;;;;;;;;;9.00;9.00;;;;;19.45;51.10;101169.75;2087885;28;46032;-60
2023/06/06 02:51:59;;;;;;;;;7.80;7.80;;;;;19.46;50.65;101178.72;2087313;28;45863;-61
2023/06/06 02:53:02;;;;;;;;;12.25;12.00;;;;;19.44;50.92;101168.03;2087962;28;45661;-61
2023/06/06 02:54:03;;;;;;;;;9.60;9.60;;;;;19.42;50.37;101177.97;2086757;28;46559;-62
2023/06/06 02:55:04;;;;;;;;;14.00;13.25;;;;;19.40;50.69;101177.19;2088220;28;45579;-61
2023/06/06 02:56:05;;;;;;;;;15.00;13.60;;;;;19.37;50.52;101172.84;2088388;28;45579;-63
2023/06/06 02:57:06;;;;;;;;;12.50;11.25;;;;;19.34;50.75;101174.81;2087383;28;45785;-60
2023/06/06 02:58:30;;;;;;;;;12.50;11.75;;;;;19.32;50.87;101174.03;2086802;28;46230;-59
2023/06/06 02:59:30;;;;;;;;;11.00;11.00;;;;;19.31;50.92;101175.84;2087504;28;46168;-62
2023/06/06 03:00:30;;;;;;;;;12.00;11.25;;;;;19.32;50.76;101172.22;2087853;28;45520;-60
2023/06/06 03:01:31;;;;;;;;;15.25;14.00;;;;;19.32;50.75;101165.97;2087941;28;46810;-62
2023/06/06 03:02:31;;;;;;;;;12.75;10.00;;;;;19.30;50.59;101170.53;2088772;28;45420;-61
2023/06/06 03:03:31;;;;;;;;;12.75;12.75;;;;;19.28;51.21;101165.22;2079438;28;45698;-61
2023/06/06 03:04:32;;;;;;;;;12.75;11.50;;;;;19.28;50.92;101161.66;2086859;28;45648;-61
2023/06/06 03:05:32;;;;;;;;;13.00;13.00;;;;;19.28;50.58;101167.03;2086752;28;46297;-61
2023/06/06 03:06:32;;;;;;;;;18.25;14.00;;;;;19.24;51.11;101166.34;2087925;28;45638;-60
2023/06/06 03:07:33;;;;;;;;;14.25;12.00;;;;;19.22;51.17;101159.28;2087664;28;46604;-61
2023/06/06 03:08:33;;;;;;;;;12.50;12.50;;;;;19.19;51.17;101163.03;2087676;28;46671;-60
2023/06/06 03:09:33;;;;;;;;;11.75;11.00;;;;;19.19;51.17;101159.47;2087314;28;48389;-60
2023/06/06 03:10:34;;;;;;;;;19.75;16.25;;;;;19.17;51.18;101164.03;2087445;28;45908;-61
2023/06/06 03:11:35;;;;;;;;;14.75;14.75;;;;;19.16;51.08;101160.47;2087669;28;46092;-61
2023/06/06 03:12:35;;;;;;;;;14.00;11.80;;;;;19.15;51.40;101164.09;2087257;28;47712;-59
2023/06/06 03:13:35;;;;;;;;;11.00;11.00;;;;;19.14;51.16;101161.50;2087328;28;46801;-60
2023/06/06 03:14:36;;;;;;;;;15.00;13.75;;;;;19.13;51.31;101165.13;2087614;28;46347;-61
2023/06/06 03:15:36;;;;;;;;;11.75;11.75;;;;;19.12;51.17;101166.94;2087677;28;46674;-60
2023/06/06 03:16:36;;;;;;;;;16.00;12.50;;;;;19.12;51.30;101169.63;2088261;28;45311;-61
2023/06/06 03:17:37;;;;;;;;;15.25;12.50;;;;;19.10;51.44;101164.34;2087541;28;46071;-64
2023/06/06 03:18:37;;;;;;;;;13.75;11.50;;;;;19.09;51.08;101167.13;2094954;28;46122;-63
2023/06/06 03:19:37;;;;;;;;;11.75;10.50;;;;;19.08;51.24;101168.94;2094252;28;45630;-61
2023/06/06 03:20:41;;;;;;;;;13.50;12.25;;;;;19.09;51.46;101169.81;2086523;28;46211;-62
2023/06/06 03:21:42;;;;;;;;;15.40;13.00;;;;;19.09;51.39;101167.13;2086828;28;46047;-60
2023/06/06 03:22:43;;;;;;;;;10.40;10.40;;;;;19.09;51.59;101172.50;2086925;28;46814;-61
2023/06/06 03:23:43;;;;;;;;;12.75;11.75;;;;;19.08;51.32;101173.44;2088265;28;46574;-61
2023/06/06 03:24:49;;;;;;;;;12.25;12.25;;;;;19.07;51.50;101169.00;2087680;28;47384;-61
2023/06/06 03:25:51;;;;;;;;;11.40;10.40;;;;;19.07;51.62;101169.00;2087157;28;45685;-60
2023/06/06 03:26:53;;;;;;;;;11.80;11.40;;;;;19.08;51.37;101165.38;2086629;28;46102;-61
2023/06/06 03:27:53;;;;;;;;;15.80;15.80;;;;;19.06;51.63;101168.16;2086865;28;46457;-62
2023/06/06 03:28:56;;;;;;;;;11.50;10.50;;;;;19.07;51.42;101166.31;2087444;28;45100;-64
2023/06/06 03:29:56;;;;;;;;;13.20;12.40;;;;;19.07;51.69;101169.88;2077937;28;48305;-63
2023/06/06 03:30:57;;;;;;;;;12.00;12.00;;;;;19.06;51.37;101165.44;2086799;28;46419;-61
2023/06/06 03:31:57;;;;;;;;;16.50;16.25;;;;;19.06;51.56;101168.16;2086128;28;46423;-60
2023/06/06 03:33:00;;;;;;;;;15.50;14.75;;;;;19.06;51.29;101165.44;2087190;28;45420;-64
2023/06/06 03:34:01;;;;;;;;;13.80;13.20;;;;;19.06;51.51;101164.59;2085601;28;45679;-62
2023/06/06 03:35:01;;;;;;;;;14.00;12.75;;;;;19.05;51.74;101165.50;2086291;28;45652;-59
2023/06/06 03:36:03;;;;;;;;;16.00;13.00;;;;;19.04;51.52;101174.53;2078178;28;45217;-62
2023/06/06 03:37:03;;;;;;;;;13.80;13.40;;;;;19.01;51.65;101164.78;2078699;28;45853;-63
2023/06/06 03:38:04;;;;;;;;;11.75;11.50;;;;;19.00;51.60;101162.19;2086161;28;45463;-62
2023/06/06 03:39:05;;;;;;;;;15.25;13.75;;;;;18.98;51.78;101162.25;2086200;28;45914;-61
2023/06/06 03:40:06;;;;;;;;;12.75;12.50;;;;;18.98;51.48;101158.69;2085866;28;45453;-62
2023/06/06 03:41:06;;;;;;;;;18.80;16.40;;;;;18.98;51.95;101158.69;2086726;28;45184;-60
2023/06/06 03:42:07;;;;;;;;;16.75;16.75;;;;;18.96;52.24;101163.28;2086473;28;46166;-62
2023/06/06 03:43:07;;;;;;;;;17.00;15.00;;;;;18.95;51.71;101165.09;2086165;28;46223;-61
2023/06/06 03:44:08;;;;;;;;;14.00;13.75;;;;;18.93;51.80;101169.69;2086335;28;47166;-59
2023/06/06 03:45:08;;;;;;;;;14.75;13.75;;;;;18.92;52.12;101162.53;2086265;28;46261;-61
2023/06/06 03:46:09;;;;;;;;;12.50;11.50;;;;;18.92;51.94;101169.75;2085764;28;45447;-60
2023/06/06 03:47:09;;;;;;;;;14.50;14.50;;;;;18.93;51.74;101168.78;2086669;28;45751;-58
2023/06/06 03:48:10;;;;;;;;;16.00;14.25;;;;;18.93;52.02;101172.38;2085806;28;47275;-62
2023/06/06 03:49:10;;;;;;;;;11.50;11.50;;;;;18.93;52.02;101177.75;2086466;28;45675;-62
2023/06/06 03:50:11;;;;;;;;;14.50;10.75;;;;;18.92;51.72;101170.63;2086580;28;45040;-60
2023/06/06 03:51:12;;;;;;;;;14.20;11.20;;;;;18.91;51.85;101176.94;2078421;28;45529;-61
2023/06/06 03:52:12;;;;;;;;;15.00;13.00;;;;;18.90;52.00;101177.03;2078060;28;45951;-61
2023/06/06 03:53:12;;;;;;;;;16.75;14.50;;;;;18.90;51.85;101177.03;2086548;28;46133;-63
2023/06/06 03:54:13;;;;;;;;;16.75;14.25;;;;;18.89;51.90;101177.97;2085645;28;45577;-61
2023/06/06 03:55:13;;;;;;;;;16.75;16.75;;;;;18.88;51.84;101177.09;2086884;28;45857;-63
2023/06/06 03:56:13;;;;;;;;;14.00;13.00;;;;;18.88;52.05;101179.78;2076929;28;46781;-60
2023/06/06 03:57:14;;;;;;;;;16.75;15.25;;;;;18.87;51.99;101177.19;2078124;28;45496;-61
2023/06/06 03:58:15;;;;;;;;;15.20;14.00;;;;;18.87;52.00;101178.06;2086013;28;46037;-61
2023/06/06 03:59:15;;;;;;;;;14.00;14.00;;;;;18.88;52.14;101178.91;2086193;28;46439;-61
2023/06/06 04:00:16;;;;;;;;;17.75;16.50;;;;;18.88;52.36;101176.22;2086393;28;46609;-62
2023/06/06 04:01:16;;;;;;;;;15.25;15.00;;;;;18.88;52.17;101179.78;2081047;28;45953;-61
2023/06/06 04:02:17;;;;;;;;;14.75;14.00;;;;;18.86;52.00;101179.00;2087302;28;46189;-62
2023/06/06 04:03:17;;;;;;;;;15.50;15.25;;;;;18.82;52.47;101174.72;2088160;28;45734;-61
2023/06/06 04:04:18;;;;;;;;;19.50;18.50;;;;;18.81;51.83;101172.97;2087375;28;45229;-62
2023/06/06 04:05:19;;;;;;;;;18.00;18.00;;;;;18.78;52.14;101176.66;2087096;28;46312;-61
2023/06/06 04:06:20;;;;;;;;;21.00;18.75;;;;;18.74;51.86;101176.91;2087724;28;46547;-63
2023/06/06 04:07:20;;;;;;;;;19.20;19.20;;;;;18.71;52.22;101179.75;2089467;28;45545;-63
2023/06/06 04:08:21;;;;;;;;;16.75;15.50;;;;;18.68;52.09;101178.09;2087163;28;45788;-63
2023/06/06 04:09:21;;;;;;;;;17.50;16.00;;;;;18.65;52.01;101172.81;2087319;28;46514;-62
2023/06/06 04:10:21;;;;;;;;;18.00;16.50;;;;;18.61;52.06;101179.28;2102995;27;46295;-64
2023/06/06 04:11:22;;;;;;;;;16.00;16.00;;;;;18.59;52.05;101178.47;2103657;27;45764;-63
2023/06/06 04:12:22;;;;;;;;;16.00;14.50;;;;;18.58;52.17;101173.19;2087406;28;45604;-63
2023/06/06 04:13:22;;;;;;;;;17.75;17.25;;;;;18.56;52.50;101177.75;2087189;28;46469;-62
2023/06/06 04:14:23;;;;;;;;;21.50;18.00;;;;;18.53;52.58;101185.00;2086346;28;45833;-61
2023/06/06 04:15:23;;;;;;;;;19.50;19.50;;;;;18.50;52.43;101179.78;2086993;28;45069;-61
2023/06/06 04:16:23;;;;;;;;;18.00;18.00;;;;;18.49;52.44;101186.09;2087971;28;46265;-62
2023/06/06 04:17:25;;;;;;;;;15.50;15.50;;;;;18.46;52.71;101197.00;2087441;28;46310;-62
2023/06/06 04:18:25;;;;;;;;;20.80;20.00;;;;;18.46;52.72;101185.38;2087258;28;45046;-62
2023/06/06 04:19:26;;;;;;;;;17.00;16.50;;;;;18.42;52.69;101187.34;2078150;28;45065;-63
2023/06/06 04:20:27;;;;;;;;;23.75;21.00;;;;;18.40;52.71;101189.22;2086108;28;45800;-62
2023/06/06 04:21:29;;;;;;;;;21.75;19.50;;;;;18.39;52.79;101189.28;2086172;28;45308;-62
2023/06/06 04:22:29;;;;;;;;;18.20;18.20;;;;;18.38;52.92;101193.78;2086280;28;46599;-63
2023/06/06 04:23:29;;;;;;;;;20.50;17.75;;;;;18.37;52.77;101183.13;2086426;28;45504;-63
2023/06/06 04:24:29;;;;;;;;;18.75;17.50;;;;;18.34;52.79;101189.50;2087332;28;44964;-63
2023/06/06 04:25:30;;;;;;;;;18.75;17.75;;;;;18.33;53.09;101187.75;2087531;28;45819;-63
2023/06/06 04:26:31;;;;;;;;;22.50;17.50;;;;;18.33;52.92;101187.75;2087354;28;45061;-63
2023/06/06 04:27:31;;;;;;;;;13.60;11.20;;;;;18.33;53.04;101187.75;2087627;28;45710;-64
2023/06/06 04:28:32;;;;;;;;;20.50;19.00;;;;;18.32;53.08;101180.66;2087568;28;47119;-63
2023/06/06 04:29:33;;;;;;;;;21.25;19.25;;;;;18.33;53.13;101184.22;2087565;28;45781;-64
2023/06/06 04:30:34;;;;;;;;;19.20;18.60;;;;;18.31;53.06;101181.59;2087155;28;46428;-64
2023/06/06 04:31:35;;;;;;;;;21.25;18.25;;;;;18.27;53.00;101182.66;2087035;28;46976;-62
2023/06/06 04:32:36;;;;;;;;;24.60;20.60;;;;;18.26;53.32;101188.09;2087821;28;45578;-61
2023/06/06 04:33:37;;;;;;;;;23.40;19.60;;;;;18.24;53.19;101185.50;2086424;28;45958;-63
2023/06/06 04:34:40;;;;;;;;;23.50;20.25;;;;;18.22;53.52;101179.31;2086144;28;45762;-61
2023/06/06 04:35:42;;;;;;;;;21.60;19.60;;;;;18.17;53.39;101176.88;2086829;28;45668;-63
2023/06/06 04:36:42;;;;;;;;;19.40;18.40;;;;;18.17;53.42;101181.38;2087163;28;46016;-63
2023/06/06 04:37:43;;;;;;;;;19.50;19.50;;;;;18.14;53.31;101176.97;2086751;28;46071;-63
2023/06/06 04:38:46;;;;;;;;;24.00;21.25;;;;;18.14;53.63;101171.59;2086869;28;45978;-62
2023/06/06 04:39:52;;;;;;;;;23.40;21.00;;;;;18.14;53.62;101184.16;2087010;28;46523;-63
2023/06/06 04:40:53;;;;;;;;;22.40;22.00;;;;;18.15;53.43;101180.53;2087072;28;45928;-62
2023/06/06 04:41:56;;;;;;;;;29.80;27.40;;;;;18.14;54.00;101179.66;2085357;28;46351;-62
2023/06/06 04:42:58;;;;;;;;;22.60;21.20;;;;;18.14;53.62;101178.78;2087168;28;45425;-64